Modesto, California
Current Conditions -  °F | °C
As of 6:53 PM on Monday 20 Oct 2014 (Local Time) from KMOD Reporting Station
Overcast Overcast  
Wind Chill: 67°   Ceiling: 4300
Heat Index: 67°   Visibility: 10mi
Dew Point: 51°   Wind: 15mph
Humidity: 57%   Direction: 290°WNW
Pressure: 29.96"   Gusts: NA
Location:  37.64°N, 120.99°W
Report Text: KMOD 210153Z 29013KT 10SM OVC043 19/11 A2996 RMK AO2 SLP144 T01940106
Loading
Personal Weather Stations






























Interactive Weather Map
Tropical Storm Tracking
New forecast layout! Learn more

10-Day Weather Forecast

Advertisements
Track Severe Weather on mobile